createdAt,value
2023-06-03T00:00:28.324Z,95035.00
2023-06-03T00:01:28.321Z,95035.00
2023-06-03T00:02:28.374Z,95035.00
2023-06-03T00:03:28.334Z,95035.00
2023-06-03T00:04:28.335Z,95035.00
2023-06-03T00:05:28.292Z,95039.00
2023-06-03T00:06:28.283Z,95035.00
2023-06-03T00:07:28.274Z,95037.00
2023-06-03T00:08:28.276Z,95037.00
2023-06-03T00:09:28.274Z,95039.00
2023-06-03T00:10:28.258Z,95041.00
2023-06-03T00:11:28.250Z,95041.00
2023-06-03T00:12:28.257Z,95043.00
2023-06-03T00:13:28.286Z,95043.00
2023-06-03T00:14:28.238Z,95041.00
2023-06-03T00:15:28.237Z,95039.00
2023-06-03T00:16:28.230Z,95041.00
2023-06-03T00:17:28.247Z,95041.00
2023-06-03T00:18:28.256Z,95043.00
2023-06-03T00:19:28.221Z,95043.00
2023-06-03T00:20:28.217Z,95043.00
2023-06-03T00:21:28.212Z,95043.00
2023-06-03T00:22:28.217Z,95045.00
2023-06-03T00:23:28.221Z,95043.00
2023-06-03T00:24:28.205Z,95045.00
2023-06-03T00:25:28.203Z,95049.00
2023-06-03T00:26:28.209Z,95049.00
2023-06-03T00:27:28.197Z,95047.00
2023-06-03T00:28:28.212Z,95049.00
2023-06-03T00:29:28.196Z,95051.00
2023-06-03T00:30:28.193Z,95055.00
2023-06-03T00:31:28.239Z,95053.00
2023-06-03T00:32:28.232Z,95055.00
2023-06-03T00:33:28.240Z,95057.00
2023-06-03T00:34:28.187Z,95059.00
2023-06-03T00:35:28.182Z,95057.00
2023-06-03T00:36:28.181Z,95057.00
2023-06-03T00:37:28.198Z,95057.00
2023-06-03T00:38:28.169Z,95055.00
2023-06-03T00:39:28.186Z,95055.00
2023-06-03T00:40:30.433Z,95057.00
2023-06-03T00:41:28.182Z,95059.00
2023-06-03T00:42:28.182Z,95055.00
2023-06-03T00:43:28.157Z,95057.00
2023-06-03T00:44:28.131Z,95057.00
2023-06-03T00:45:28.162Z,95057.00
2023-06-03T00:46:28.180Z,95051.00
2023-06-03T00:47:28.176Z,95051.00
2023-06-03T00:48:28.111Z,95053.00
2023-06-03T00:49:28.111Z,95051.00
2023-06-03T00:50:28.105Z,95053.00
2023-06-03T00:51:28.091Z,95051.00
2023-06-03T00:52:28.082Z,95053.00
2023-06-03T00:53:28.055Z,95051.00
2023-06-03T00:54:28.051Z,95051.00
2023-06-03T00:55:28.049Z,95051.00
2023-06-03T00:56:28.033Z,95051.00
2023-06-03T00:57:28.034Z,95049.00
2023-06-03T00:58:28.017Z,95049.00
2023-06-03T00:59:28.012Z,95047.00
2023-06-03T01:00:28.005Z,95049.00
2023-06-03T01:01:28.020Z,95047.00
2023-06-03T01:02:28.105Z,95051.00
2023-06-03T01:03:28.838Z,95049.00
2023-06-03T01:04:28.003Z,95049.00
2023-06-03T01:05:27.963Z,95047.00
2023-06-03T01:06:27.963Z,95045.00
2023-06-03T01:07:27.953Z,95047.00
2023-06-03T01:08:27.959Z,95047.00
2023-06-03T01:09:27.939Z,95049.00
2023-06-03T01:10:27.929Z,95049.00
2023-06-03T01:11:27.925Z,95051.00
2023-06-03T01:12:27.920Z,95055.00
2023-06-03T01:13:27.899Z,95057.00
2023-06-03T01:14:27.895Z,95055.00
2023-06-03T01:15:27.931Z,95057.00
2023-06-03T01:16:27.934Z,95059.00
2023-06-03T01:17:27.922Z,95055.00
2023-06-03T01:18:27.876Z,95055.00
2023-06-03T01:19:27.879Z,95055.00
2023-06-03T01:20:28.013Z,95053.00
2023-06-03T01:21:27.874Z,95053.00
2023-06-03T01:22:27.845Z,95053.00
2023-06-03T01:23:28.689Z,95053.00
2023-06-03T01:24:27.859Z,95053.00
2023-06-03T01:25:27.838Z,95055.00
2023-06-03T01:26:27.827Z,95055.00
2023-06-03T01:27:27.821Z,95055.00
2023-06-03T01:28:27.818Z,95057.00
2023-06-03T01:29:27.814Z,95055.00
2023-06-03T01:30:27.816Z,95055.00
2023-06-03T01:31:27.819Z,95055.00
2023-06-03T01:32:27.810Z,95053.00
2023-06-03T01:33:27.847Z,95053.00
2023-06-03T01:34:27.818Z,95053.00
2023-06-03T01:35:27.794Z,95053.00
2023-06-03T01:36:27.796Z,95051.00
2023-06-03T01:37:27.774Z,95053.00
2023-06-03T01:38:27.774Z,95051.00
2023-06-03T01:39:27.753Z,95051.00
2023-06-03T01:40:27.804Z,95045.00
2023-06-03T01:41:27.743Z,95049.00
2023-06-03T01:42:27.733Z,95047.00
2023-06-03T01:43:27.745Z,95045.00
2023-06-03T01:44:27.720Z,95049.00
2023-06-03T01:45:27.757Z,95043.00
2023-06-03T01:46:27.824Z,95045.00
2023-06-03T01:47:27.757Z,95043.00
2023-06-03T01:48:27.730Z,95041.00
2023-06-03T01:49:27.698Z,95041.00
2023-06-03T01:50:27.824Z,95043.00
2023-06-03T01:51:27.739Z,95041.00
2023-06-03T01:52:27.766Z,95045.00
2023-06-03T01:53:27.727Z,95043.00
2023-06-03T01:54:27.733Z,95043.00
2023-06-03T01:55:27.723Z,95047.00
2023-06-03T01:56:27.620Z,95047.00
2023-06-03T01:57:28.375Z,95049.00
2023-06-03T01:58:27.596Z,95047.00
2023-06-03T01:59:27.613Z,95049.00
2023-06-03T02:00:27.633Z,95051.00
2023-06-03T02:01:27.670Z,95047.00
2023-06-03T02:02:27.737Z,95051.00
2023-06-03T02:03:27.619Z,95051.00
2023-06-03T02:04:27.615Z,95049.00
2023-06-03T02:05:27.624Z,95049.00
2023-06-03T02:06:27.634Z,95051.00
2023-06-03T02:07:27.637Z,95051.00
2023-06-03T02:08:28.189Z,95055.00
2023-06-03T02:09:27.656Z,95053.00
2023-06-03T02:10:27.652Z,95053.00
2023-06-03T02:11:27.660Z,95055.00
2023-06-03T02:12:27.682Z,95055.00
2023-06-03T02:13:27.671Z,95053.00
2023-06-03T02:14:27.774Z,95057.00
2023-06-03T02:15:27.693Z,95055.00
2023-06-03T02:16:27.737Z,95053.00
2023-06-03T02:17:27.807Z,95055.00
2023-06-03T02:18:27.870Z,95053.00
2023-06-03T02:19:27.770Z,95051.00
2023-06-03T02:20:27.789Z,95051.00
2023-06-03T02:21:27.762Z,95051.00
2023-06-03T02:22:27.782Z,95053.00
2023-06-03T02:23:27.856Z,95051.00
2023-06-03T02:24:27.794Z,95053.00
2023-06-03T02:25:27.805Z,95051.00
2023-06-03T02:26:27.811Z,95051.00
2023-06-03T02:27:27.822Z,95049.00
2023-06-03T02:28:27.858Z,95053.00
2023-06-03T02:29:27.843Z,95051.00
2023-06-03T02:30:27.862Z,95049.00
2023-06-03T02:31:27.879Z,95051.00
2023-06-03T02:32:27.903Z,95053.00
2023-06-03T02:33:27.879Z,95049.00
2023-06-03T02:34:27.897Z,95051.00
2023-06-03T02:35:27.937Z,95049.00
2023-06-03T02:36:27.901Z,95049.00
2023-06-03T02:37:27.998Z,95051.00
2023-06-03T02:38:28.030Z,95051.00
2023-06-03T02:39:27.919Z,95051.00
2023-06-03T02:40:27.925Z,95051.00
2023-06-03T02:41:27.938Z,95053.00
2023-06-03T02:42:28.076Z,95049.00
2023-06-03T02:43:27.939Z,95057.00
2023-06-03T02:44:28.051Z,95051.00
2023-06-03T02:45:28.068Z,95053.00
2023-06-03T02:46:28.057Z,95055.00
2023-06-03T02:47:27.999Z,95057.00
2023-06-03T02:48:27.978Z,95057.00
2023-06-03T02:49:28.065Z,95059.00
2023-06-03T02:50:28.106Z,95059.00
2023-06-03T02:51:28.011Z,95057.00
2023-06-03T02:52:28.005Z,95059.00
2023-06-03T02:53:28.083Z,95061.00
2023-06-03T02:54:28.139Z,95061.00
2023-06-03T02:55:28.088Z,95059.00
2023-06-03T02:56:28.115Z,95059.00
2023-06-03T02:57:28.149Z,95059.00
2023-06-03T02:58:28.067Z,95061.00
2023-06-03T02:59:28.109Z,95061.00
2023-06-03T03:00:28.200Z,95059.00
2023-06-03T03:01:28.213Z,95061.00
2023-06-03T03:02:28.291Z,95062.00
2023-06-03T03:03:28.285Z,95064.00
2023-06-03T03:04:28.248Z,95066.00
2023-06-03T03:05:28.177Z,95066.00
2023-06-03T03:06:28.282Z,95070.00
2023-06-03T03:07:28.345Z,95070.00
2023-06-03T03:08:28.231Z,95072.00
2023-06-03T03:09:28.298Z,95074.00
2023-06-03T03:10:28.291Z,95074.00
2023-06-03T03:11:28.269Z,95078.00
2023-06-03T03:12:28.247Z,95080.00
2023-06-03T03:13:28.263Z,95082.00
2023-06-03T03:14:28.249Z,95082.00
2023-06-03T03:15:28.257Z,95084.00
2023-06-03T03:16:28.304Z,95086.00
2023-06-03T03:17:28.307Z,95082.00
2023-06-03T03:18:28.268Z,95084.00
2023-06-03T03:19:28.289Z,95086.00
2023-06-03T03:20:28.296Z,95088.00
2023-06-03T03:21:28.312Z,95088.00
2023-06-03T03:22:28.317Z,95088.00
2023-06-03T03:23:28.371Z,95088.00
2023-06-03T03:24:28.338Z,95090.00
2023-06-03T03:25:28.382Z,95090.00
2023-06-03T03:26:28.431Z,95090.00
2023-06-03T03:27:28.422Z,95092.00
2023-06-03T03:28:28.391Z,95092.00
2023-06-03T03:29:28.399Z,95090.00
2023-06-03T03:30:28.410Z,95094.00
2023-06-03T03:31:28.448Z,95092.00
2023-06-03T03:32:28.649Z,95096.00
2023-06-03T03:33:28.444Z,95096.00
2023-06-03T03:34:28.489Z,95096.00
2023-06-03T03:35:28.535Z,95098.00
2023-06-03T03:36:28.498Z,95100.00
2023-06-03T03:37:28.521Z,95098.00
2023-06-03T03:38:28.529Z,95100.00
2023-06-03T03:39:28.547Z,95102.00
2023-06-03T03:40:28.600Z,95102.00
2023-06-03T03:41:28.580Z,95104.00
2023-06-03T03:42:28.598Z,95102.00
2023-06-03T03:43:28.624Z,95106.00
2023-06-03T03:44:28.637Z,95104.00
2023-06-03T03:45:28.676Z,95106.00
2023-06-03T03:46:28.868Z,95106.00
2023-06-03T03:47:28.749Z,95109.00
2023-06-03T03:48:28.701Z,95104.00
2023-06-03T03:49:28.709Z,95106.00
2023-06-03T03:50:28.737Z,95106.00
2023-06-03T03:51:28.744Z,95106.00
2023-06-03T03:52:28.821Z,95106.00
2023-06-03T03:53:28.786Z,95106.00
2023-06-03T03:54:28.787Z,95104.00
2023-06-03T03:55:30.795Z,95108.00
2023-06-03T03:56:28.822Z,95108.00
2023-06-03T03:57:28.788Z,95106.00
2023-06-03T03:58:28.807Z,95108.00
2023-06-03T03:59:28.861Z,95111.00
2023-06-03T04:00:28.782Z,95108.00
2023-06-03T04:01:28.818Z,95109.00
2023-06-03T04:02:28.921Z,95109.00
2023-06-03T04:03:28.846Z,95109.00
2023-06-03T04:04:28.787Z,95108.00
2023-06-03T04:05:28.748Z,95106.00
2023-06-03T04:06:28.748Z,95108.00
2023-06-03T04:07:28.746Z,95106.00
2023-06-03T04:08:28.736Z,95108.00
2023-06-03T04:09:28.739Z,95108.00
2023-06-03T04:10:28.733Z,95108.00
2023-06-03T04:11:28.720Z,95109.00
2023-06-03T04:12:28.722Z,95108.00
2023-06-03T04:13:28.710Z,95111.00
2023-06-03T04:14:28.701Z,95106.00
2023-06-03T04:15:28.729Z,95109.00
2023-06-03T04:16:28.788Z,95108.00
2023-06-03T04:17:28.711Z,95109.00
2023-06-03T04:18:28.676Z,95109.00
2023-06-03T04:19:28.662Z,95109.00
2023-06-03T04:20:28.655Z,95113.00
2023-06-03T04:21:28.653Z,95109.00
2023-06-03T04:22:28.656Z,95111.00
2023-06-03T04:23:29.245Z,95109.00
2023-06-03T04:24:29.238Z,95111.00
2023-06-03T04:25:28.687Z,95109.00
2023-06-03T04:26:28.636Z,95109.00
2023-06-03T04:27:28.673Z,95111.00
2023-06-03T04:28:28.632Z,95109.00
2023-06-03T04:29:28.633Z,95111.00
2023-06-03T04:30:28.620Z,95109.00
2023-06-03T04:31:28.652Z,95111.00
2023-06-03T04:32:28.655Z,95111.00
2023-06-03T04:33:28.601Z,95109.00
2023-06-03T04:34:28.597Z,95109.00
2023-06-03T04:35:28.587Z,95109.00
2023-06-03T04:36:28.645Z,95109.00
2023-06-03T04:37:28.609Z,95109.00
2023-06-03T04:38:28.627Z,95109.00
2023-06-03T04:39:28.818Z,95109.00
2023-06-03T04:40:28.676Z,95109.00
2023-06-03T04:41:28.733Z,95108.00
2023-06-03T04:42:28.713Z,95108.00
2023-06-03T04:43:28.726Z,95108.00
2023-06-03T04:44:28.747Z,95109.00
2023-06-03T04:45:28.785Z,95109.00
2023-06-03T04:46:28.835Z,95109.00
2023-06-03T04:47:28.813Z,95108.00
2023-06-03T04:48:28.781Z,95108.00
2023-06-03T04:49:28.821Z,95106.00
2023-06-03T04:50:30.388Z,95106.00
2023-06-03T04:51:29.025Z,95106.00
2023-06-03T04:52:29.038Z,95104.00
2023-06-03T04:53:29.059Z,95102.00
2023-06-03T04:54:29.073Z,95102.00
2023-06-03T04:55:29.090Z,95102.00
2023-06-03T04:56:29.114Z,95100.00
2023-06-03T04:57:29.148Z,95100.00
2023-06-03T04:58:29.143Z,95100.00
2023-06-03T04:59:29.164Z,95100.00
2023-06-03T05:00:29.173Z,95098.00
2023-06-03T05:01:29.272Z,95098.00
2023-06-03T05:02:29.254Z,95096.00
2023-06-03T05:03:29.297Z,95096.00
2023-06-03T05:04:29.240Z,95094.00
2023-06-03T05:05:29.254Z,95094.00
2023-06-03T05:06:29.274Z,95092.00
2023-06-03T05:07:29.295Z,95092.00
2023-06-03T05:08:29.410Z,95092.00
2023-06-03T05:09:29.328Z,95090.00
2023-06-03T05:10:29.363Z,95088.00
2023-06-03T05:11:29.363Z,95084.00
2023-06-03T05:12:29.443Z,95088.00
2023-06-03T05:13:29.396Z,95088.00
2023-06-03T05:14:29.413Z,95086.00
2023-06-03T05:15:29.456Z,95086.00
2023-06-03T05:16:29.569Z,95084.00
2023-06-03T05:17:29.562Z,95086.00
2023-06-03T05:18:29.533Z,95086.00
2023-06-03T05:19:29.532Z,95086.00
2023-06-03T05:20:29.536Z,95084.00
2023-06-03T05:21:29.526Z,95084.00
2023-06-03T05:22:29.583Z,95086.00
2023-06-03T05:23:29.599Z,95086.00
2023-06-03T05:24:29.584Z,95086.00
2023-06-03T05:25:29.601Z,95086.00
2023-06-03T05:26:29.624Z,95086.00
2023-06-03T05:27:29.705Z,95086.00
2023-06-03T05:28:29.652Z,95088.00
2023-06-03T05:29:29.668Z,95086.00
2023-06-03T05:30:29.686Z,95086.00
2023-06-03T05:31:29.746Z,95086.00
2023-06-03T05:32:29.721Z,95086.00
2023-06-03T05:33:29.736Z,95084.00
2023-06-03T05:34:29.761Z,95084.00
2023-06-03T05:35:29.773Z,95082.00
2023-06-03T05:36:29.794Z,95082.00
2023-06-03T05:37:29.824Z,95080.00
2023-06-03T05:38:29.839Z,95084.00
2023-06-03T05:39:29.852Z,95084.00
2023-06-03T05:40:29.859Z,95084.00
2023-06-03T05:41:29.880Z,95080.00
2023-06-03T05:42:29.895Z,95078.00
2023-06-03T05:43:29.912Z,95078.00
2023-06-03T05:44:29.922Z,95078.00
2023-06-03T05:45:29.950Z,95076.00
2023-06-03T05:46:30.107Z,95074.00
2023-06-03T05:47:30.066Z,95072.00
2023-06-03T05:48:29.993Z,95072.00
2023-06-03T05:49:30.019Z,95070.00
2023-06-03T05:50:30.028Z,95068.00
2023-06-03T05:51:30.046Z,95070.00
2023-06-03T05:52:30.061Z,95070.00
2023-06-03T05:53:30.088Z,95070.00
2023-06-03T05:54:30.123Z,95066.00
2023-06-03T05:55:30.108Z,95064.00
2023-06-03T05:56:30.143Z,95062.00
2023-06-03T05:57:30.167Z,95062.00
2023-06-03T05:58:30.158Z,95062.00
2023-06-03T05:59:30.176Z,95061.00
2023-06-03T06:00:30.186Z,95061.00
2023-06-03T06:01:30.197Z,95062.00
2023-06-03T06:02:30.254Z,95061.00
2023-06-03T06:03:30.332Z,95055.00
2023-06-03T06:04:30.192Z,95057.00
2023-06-03T06:05:30.181Z,95059.00
2023-06-03T06:06:30.194Z,95061.00
2023-06-03T06:07:30.246Z,95059.00
2023-06-03T06:08:30.199Z,95062.00
2023-06-03T06:09:30.257Z,95061.00
2023-06-03T06:10:30.220Z,95061.00
2023-06-03T06:11:30.450Z,95062.00
2023-06-03T06:12:30.236Z,95061.00
2023-06-03T06:13:30.251Z,95061.00
2023-06-03T06:14:30.261Z,95059.00
2023-06-03T06:15:30.290Z,95059.00
2023-06-03T06:16:30.852Z,95059.00
2023-06-03T06:17:30.373Z,95059.00
2023-06-03T06:18:30.403Z,95059.00
2023-06-03T06:19:30.437Z,95061.00
2023-06-03T06:20:30.495Z,95061.00
2023-06-03T06:21:30.580Z,95059.00
2023-06-03T06:22:30.610Z,95061.00
2023-06-03T06:23:30.734Z,95059.00
2023-06-03T06:24:30.706Z,95061.00
2023-06-03T06:25:30.761Z,95062.00
2023-06-03T06:26:30.805Z,95062.00
2023-06-03T06:27:30.869Z,95062.00
2023-06-03T06:28:30.892Z,95062.00
2023-06-03T06:29:31.298Z,95062.00
2023-06-03T06:30:30.966Z,95062.00
2023-06-03T06:31:31.034Z,95062.00
2023-06-03T06:32:31.102Z,95064.00
2023-06-03T06:33:31.083Z,95062.00
2023-06-03T06:34:31.118Z,95064.00
2023-06-03T06:35:31.151Z,95062.00
2023-06-03T06:36:31.186Z,95061.00
2023-06-03T06:37:31.242Z,95061.00
2023-06-03T06:38:31.237Z,95059.00
2023-06-03T06:39:31.263Z,95059.00
2023-06-03T06:40:31.305Z,95061.00
2023-06-03T06:41:31.332Z,95061.00
2023-06-03T06:42:31.354Z,95059.00
2023-06-03T06:43:31.848Z,95059.00
2023-06-03T06:44:31.417Z,95061.00
2023-06-03T06:45:31.626Z,95057.00
2023-06-03T06:46:31.528Z,95059.00
2023-06-03T06:47:31.552Z,95059.00
2023-06-03T06:48:31.805Z,95059.00
2023-06-03T06:49:31.624Z,95055.00
2023-06-03T06:50:31.619Z,95055.00
2023-06-03T06:51:31.654Z,95057.00
2023-06-03T06:52:31.636Z,95051.00
2023-06-03T06:53:31.672Z,95053.00
2023-06-03T06:54:31.635Z,95053.00
2023-06-03T06:55:31.640Z,95053.00
2023-06-03T06:56:31.643Z,95051.00
2023-06-03T06:57:31.644Z,95051.00
2023-06-03T06:58:31.694Z,95053.00
2023-06-03T06:59:31.620Z,95051.00
2023-06-03T07:00:31.701Z,95051.00
2023-06-03T07:01:31.730Z,95049.00
2023-06-03T07:02:31.751Z,95053.00
2023-06-03T07:03:31.812Z,95051.00
2023-06-03T07:04:31.770Z,95051.00
2023-06-03T07:05:31.813Z,95049.00
2023-06-03T07:06:31.792Z,95045.00
2023-06-03T07:07:31.813Z,95049.00
2023-06-03T07:08:31.787Z,95047.00
2023-06-03T07:09:31.769Z,95047.00
2023-06-03T07:10:31.766Z,95045.00
2023-06-03T07:11:31.759Z,95045.00
2023-06-03T07:12:31.784Z,95043.00
2023-06-03T07:13:31.758Z,95043.00
2023-06-03T07:14:31.757Z,95041.00
2023-06-03T07:15:31.773Z,95041.00
2023-06-03T07:16:31.812Z,95041.00
2023-06-03T07:17:31.822Z,95041.00
2023-06-03T07:18:31.791Z,95041.00
2023-06-03T07:19:31.788Z,95039.00
2023-06-03T07:20:31.828Z,95035.00
2023-06-03T07:21:31.847Z,95033.00
2023-06-03T07:22:31.907Z,95033.00
2023-06-03T07:23:31.955Z,95029.00
2023-06-03T07:24:32.727Z,95031.00
2023-06-03T07:25:31.978Z,95027.00
2023-06-03T07:26:31.984Z,95025.00
2023-06-03T07:27:32.013Z,95025.00
2023-06-03T07:28:32.026Z,95025.00
2023-06-03T07:29:31.990Z,95025.00
2023-06-03T07:30:31.993Z,95027.00
2023-06-03T07:31:32.063Z,95023.00
2023-06-03T07:32:32.078Z,95025.00
2023-06-03T07:33:32.011Z,95023.00
2023-06-03T07:34:32.019Z,95019.00
2023-06-03T07:35:32.013Z,95021.00
2023-06-03T07:36:32.022Z,95021.00
2023-06-03T07:37:32.071Z,95021.00
2023-06-03T07:38:32.018Z,95021.00
2023-06-03T07:39:32.018Z,95023.00
2023-06-03T07:40:32.027Z,95019.00
2023-06-03T07:41:32.032Z,95019.00
2023-06-03T07:42:32.078Z,95019.00
2023-06-03T07:43:32.326Z,95017.00
2023-06-03T07:44:32.041Z,95015.00
2023-06-03T07:45:32.062Z,95013.00
2023-06-03T07:46:32.116Z,95013.00
2023-06-03T07:47:32.109Z,95013.00
2023-06-03T07:48:32.049Z,95017.00
2023-06-03T07:49:32.042Z,95017.00
2023-06-03T07:50:32.066Z,95015.00
2023-06-03T07:51:32.049Z,95017.00
2023-06-03T07:52:32.063Z,95015.00
2023-06-03T07:53:33.659Z,95019.00
2023-06-03T07:54:32.107Z,95015.00
2023-06-03T07:55:32.038Z,95015.00
2023-06-03T07:56:32.041Z,95017.00
2023-06-03T07:57:32.051Z,95017.00
2023-06-03T07:58:32.060Z,95017.00
2023-06-03T07:59:32.028Z,95019.00
2023-06-03T08:00:32.021Z,95017.00
2023-06-03T08:01:32.015Z,95019.00
2023-06-03T08:02:32.107Z,95015.00
2023-06-03T08:03:32.045Z,95019.00
2023-06-03T08:04:32.047Z,95019.00
2023-06-03T08:05:31.991Z,95017.00
2023-06-03T08:06:32.011Z,95017.00
2023-06-03T08:07:31.974Z,95017.00
2023-06-03T08:08:31.976Z,95013.00
2023-06-03T08:09:31.964Z,95011.00
2023-06-03T08:10:31.964Z,95011.00
2023-06-03T08:11:32.344Z,95017.00
2023-06-03T08:12:31.955Z,95013.00
2023-06-03T08:13:31.955Z,95011.00
2023-06-03T08:14:31.941Z,95013.00
2023-06-03T08:15:31.941Z,95013.00
2023-06-03T08:16:32.081Z,95013.00
2023-06-03T08:17:31.950Z,95007.00
2023-06-03T08:18:31.905Z,95007.00
2023-06-03T08:19:31.894Z,95007.00
2023-06-03T08:20:31.887Z,95007.00
2023-06-03T08:21:31.880Z,95009.00
2023-06-03T08:22:31.864Z,95006.00
2023-06-03T08:23:31.928Z,95004.00
2023-06-03T08:24:31.888Z,95004.00
2023-06-03T08:25:31.852Z,95006.00
2023-06-03T08:26:31.837Z,95007.00
2023-06-03T08:27:31.829Z,95007.00
2023-06-03T08:28:31.829Z,95006.00
2023-06-03T08:29:31.839Z,95006.00
2023-06-03T08:30:31.813Z,95006.00
2023-06-03T08:31:31.817Z,95007.00
2023-06-03T08:32:31.837Z,95007.00
2023-06-03T08:33:31.814Z,95004.00
2023-06-03T08:34:31.774Z,95007.00
2023-06-03T08:35:31.787Z,95004.00
2023-06-03T08:36:31.759Z,95006.00
2023-06-03T08:37:31.788Z,95006.00
2023-06-03T08:38:31.766Z,95006.00
2023-06-03T08:39:31.783Z,95002.00
2023-06-03T08:40:31.830Z,95004.00
2023-06-03T08:41:31.882Z,95004.00
2023-06-03T08:42:31.964Z,95002.00
2023-06-03T08:43:32.087Z,94998.00
2023-06-03T08:44:32.051Z,95000.00
2023-06-03T08:45:32.123Z,95000.00
2023-06-03T08:46:32.328Z,94998.00
2023-06-03T08:47:32.264Z,94996.00
2023-06-03T08:48:32.344Z,94998.00
2023-06-03T08:49:32.361Z,94994.00
2023-06-03T08:50:32.413Z,94998.00
2023-06-03T08:51:32.474Z,94996.00
2023-06-03T08:52:32.565Z,94994.00
2023-06-03T08:53:32.619Z,94992.00
2023-06-03T08:54:32.642Z,94990.00
2023-06-03T08:55:32.696Z,94988.00
2023-06-03T08:56:32.745Z,94990.00
2023-06-03T08:57:32.824Z,94986.00
2023-06-03T08:58:32.866Z,94988.00
2023-06-03T08:59:32.894Z,94984.00
2023-06-03T09:00:32.996Z,94984.00
2023-06-03T09:01:33.068Z,94984.00
2023-06-03T09:02:33.054Z,94982.00
2023-06-03T09:03:33.124Z,94982.00
2023-06-03T09:04:33.110Z,94980.00
2023-06-03T09:05:33.138Z,94978.00
2023-06-03T09:06:33.190Z,94974.00
2023-06-03T09:07:33.208Z,94976.00
2023-06-03T09:08:33.254Z,94976.00
2023-06-03T09:09:33.285Z,94972.00
2023-06-03T09:10:33.333Z,94970.00
2023-06-03T09:11:33.360Z,94970.00
2023-06-03T09:12:33.415Z,94966.00
2023-06-03T09:13:33.434Z,94968.00
2023-06-03T09:14:33.867Z,94968.00
2023-06-03T09:15:33.614Z,94968.00
2023-06-03T09:16:33.598Z,94968.00
2023-06-03T09:17:33.611Z,94962.00
2023-06-03T09:18:33.640Z,94962.00
2023-06-03T09:19:33.682Z,94962.00
2023-06-03T09:20:33.732Z,94959.00
2023-06-03T09:21:33.761Z,94960.00
2023-06-03T09:22:33.813Z,94960.00
2023-06-03T09:23:33.879Z,94962.00
2023-06-03T09:24:33.921Z,94959.00
2023-06-03T09:25:33.933Z,94960.00
2023-06-03T09:26:33.982Z,94959.00
2023-06-03T09:27:34.061Z,94957.00
2023-06-03T09:28:34.081Z,94955.00
2023-06-03T09:29:34.142Z,94955.00
2023-06-03T09:30:34.175Z,94953.00
2023-06-03T09:31:34.257Z,94953.00
2023-06-03T09:32:34.360Z,94955.00
2023-06-03T09:33:34.324Z,94953.00
2023-06-03T09:34:34.368Z,94957.00
2023-06-03T09:35:34.378Z,94955.00
2023-06-03T09:36:34.411Z,94955.00
2023-06-03T09:37:34.460Z,94953.00
2023-06-03T09:38:34.500Z,94957.00
2023-06-03T09:39:34.583Z,94957.00
2023-06-03T09:40:34.560Z,94957.00
2023-06-03T09:41:34.598Z,94955.00
2023-06-03T09:42:34.631Z,94951.00
2023-06-03T09:43:34.673Z,94953.00
2023-06-03T09:44:34.712Z,94949.00
2023-06-03T09:45:34.744Z,94949.00
2023-06-03T09:46:34.849Z,94949.00
2023-06-03T09:47:34.851Z,94945.00
2023-06-03T09:48:34.860Z,94947.00
2023-06-03T09:49:49.807Z,94943.00
2023-06-03T09:50:34.916Z,94945.00
2023-06-03T09:51:34.877Z,94943.00
2023-06-03T09:52:34.925Z,94943.00
2023-06-03T09:53:34.848Z,94941.00
2023-06-03T09:54:34.827Z,94939.00
2023-06-03T09:55:34.839Z,94941.00
2023-06-03T09:56:34.788Z,94937.00
2023-06-03T09:57:34.775Z,94939.00
2023-06-03T09:58:34.769Z,94933.00
2023-06-03T09:59:34.752Z,94929.00
2023-06-03T10:00:34.738Z,94931.00
2023-06-03T10:01:34.764Z,94927.00
2023-06-03T10:02:34.781Z,94927.00
2023-06-03T10:03:34.760Z,94927.00
2023-06-03T10:04:34.679Z,94925.00
2023-06-03T10:05:34.667Z,94923.00
2023-06-03T10:06:34.646Z,94925.00
2023-06-03T10:07:34.696Z,94921.00
2023-06-03T10:08:34.627Z,94921.00
2023-06-03T10:09:34.619Z,94921.00
2023-06-03T10:10:34.758Z,94921.00
2023-06-03T10:11:34.610Z,94923.00
2023-06-03T10:12:34.581Z,94923.00
2023-06-03T10:13:34.574Z,94919.00
2023-06-03T10:14:34.553Z,94919.00
2023-06-03T10:15:34.536Z,94919.00
2023-06-03T10:16:34.576Z,94921.00
2023-06-03T10:17:37.103Z,94921.00
2023-06-03T10:18:34.548Z,94921.00
2023-06-03T10:19:34.526Z,94919.00
2023-06-03T10:20:34.522Z,94919.00
2023-06-03T10:21:34.492Z,94917.00
2023-06-03T10:22:34.474Z,94919.00
2023-06-03T10:23:34.489Z,94919.00
2023-06-03T10:24:34.454Z,94919.00
2023-06-03T10:25:34.456Z,94915.00
2023-06-03T10:26:34.429Z,94915.00
2023-06-03T10:27:34.417Z,94913.00
2023-06-03T10:28:34.404Z,94911.00
2023-06-03T10:29:34.403Z,94913.00
2023-06-03T10:30:34.385Z,94911.00
2023-06-03T10:31:34.425Z,94908.00
2023-06-03T10:32:34.355Z,94909.00
2023-06-03T10:33:34.343Z,94904.00
2023-06-03T10:34:34.329Z,94906.00
2023-06-03T10:35:34.325Z,94906.00
2023-06-03T10:36:34.314Z,94908.00
2023-06-03T10:37:34.296Z,94904.00
2023-06-03T10:38:34.296Z,94904.00
2023-06-03T10:39:34.280Z,94902.00
2023-06-03T10:40:34.291Z,94902.00
2023-06-03T10:41:34.254Z,94902.00
2023-06-03T10:42:34.249Z,94900.00
2023-06-03T10:43:34.259Z,94898.00
2023-06-03T10:44:34.316Z,94898.00
2023-06-03T10:45:34.368Z,94900.00
2023-06-03T10:46:34.473Z,94894.00
2023-06-03T10:47:34.504Z,94900.00
2023-06-03T10:48:34.549Z,94898.00
2023-06-03T10:49:34.582Z,94896.00
2023-06-03T10:50:34.626Z,94894.00
2023-06-03T10:51:34.680Z,94894.00
2023-06-03T10:52:34.720Z,94892.00
2023-06-03T10:53:34.793Z,94894.00
2023-06-03T10:54:34.810Z,94888.00
2023-06-03T10:55:34.879Z,94890.00
2023-06-03T10:56:34.990Z,94888.00
2023-06-03T10:57:34.940Z,94886.00
2023-06-03T10:58:34.996Z,94888.00
2023-06-03T10:59:35.022Z,94888.00
2023-06-03T11:00:35.067Z,94884.00
2023-06-03T11:01:35.135Z,94884.00
2023-06-03T11:02:35.183Z,94884.00
2023-06-03T11:03:35.205Z,94882.00
2023-06-03T11:04:35.224Z,94874.00
2023-06-03T11:05:35.257Z,94882.00
2023-06-03T11:06:35.300Z,94882.00
2023-06-03T11:07:35.324Z,94874.00
2023-06-03T11:08:35.415Z,94874.00
2023-06-03T11:09:35.416Z,94872.00
2023-06-03T11:10:35.450Z,94874.00
2023-06-03T11:11:35.479Z,94872.00
2023-06-03T11:12:35.523Z,94872.00
2023-06-03T11:13:35.562Z,94872.00
2023-06-03T11:14:35.616Z,94872.00
2023-06-03T11:15:35.634Z,94870.00
2023-06-03T11:16:35.855Z,94868.00
2023-06-03T11:17:35.724Z,94872.00
2023-06-03T11:18:35.764Z,94870.00
2023-06-03T11:19:35.812Z,94868.00
2023-06-03T11:20:35.839Z,94866.00
2023-06-03T11:21:35.882Z,94868.00
2023-06-03T11:22:35.955Z,94866.00
2023-06-03T11:23:36.009Z,94864.00
2023-06-03T11:24:36.003Z,94864.00
2023-06-03T11:25:36.050Z,94862.00
2023-06-03T11:26:36.095Z,94860.00
2023-06-03T11:27:36.139Z,94862.00
2023-06-03T11:28:36.827Z,94862.00
2023-06-03T11:29:36.248Z,94864.00
2023-06-03T11:30:36.259Z,94862.00
2023-06-03T11:31:36.379Z,94868.00
2023-06-03T11:32:36.384Z,94862.00
2023-06-03T11:33:36.379Z,94862.00
2023-06-03T11:34:36.413Z,94860.00
2023-06-03T11:35:36.451Z,94860.00
2023-06-03T11:36:36.504Z,94860.00
2023-06-03T11:37:36.547Z,94860.00
2023-06-03T11:38:36.591Z,94857.00
2023-06-03T11:39:36.634Z,94855.00
2023-06-03T11:40:36.676Z,94855.00
2023-06-03T11:41:36.741Z,94860.00
2023-06-03T11:42:36.743Z,94853.00
2023-06-03T11:43:36.792Z,94857.00
2023-06-03T11:44:36.821Z,94853.00